Adger, AL (35006)

1:13 PM CST on February 10, 2016 (GMT -0600)
Alliance | | Change Station
CLOSE
Current Station
Personal Weather Station
Location: Bessemer, AL
Elevation: 545 ft
Nearby Weather Stations

Elev 545 ft 33.52 °N, 87.14 °W | Updated 1 second ago

Clear
Clear
45.1 °F
Feels Like 43 °F
N
4.2
Wind Variable Wind from NW

Today
High -- | Low -- °F
--% Chance of Precip.
Yesterday
High -- | Low -- °F
Precip. -- in
Pressure 30.24 in
Visibility 10.0 miles
Clouds Clear
Windchill 43 °F
Dew Point 8 °F
Humidity 22%
Rainfall 0.00 in
Snow Depth Not available.
6:38 AM 5:28 PM
Waxing Crescent, 6% visible
METAR KBHM 101853Z 28013G19KT 10SM CLR 03/M15 A3023 RMK AO2 SLP240 T00331150
Pressure 30.24 in
Visibility 10.0 miles
Clouds Clear
Windchill 43 °F
Dew Point 8 °F
Humidity 22%
Rainfall 0.00 in
Snow Depth Not available.
6:38 AM 5:28 PM
Waxing Crescent, 6% visible
METAR KBHM 101853Z 28013G19KT 10SM CLR 03/M15 A3023 RMK AO2 SLP240 T00331150

10-Day Weather Forecast

Almanac

Astronomy

Feb. 10, 2016 Rise Set
Actual Time
Civil Twilight
Nautical Twilight
Astronomical Twilight
Moon
Length of Visible Light
Length of Day
Tomorrow will be .
, % of the Moon is Illuminated

Today's Extremes

State Highs State Lows

Community

WunderPhotos

Upload Photos

1,891,922 photos uploaded!

WunderBlog® & News

Nearby

Air Quality

  Air Quality AQ Index Pollutant
Not available.

Snow Depth

Station Depth Elevation

Earthquake Activity

City Distance Mag. Time & Date
Minimum magnitude displayed is 2.5.

Coastal Water Temperatures

Place Temperature

Stations

Nearby Weather Stations

Station Location Temp. Windchill Dew Point Humidity Wind Precip. Elev Updated Type
                   

Watches & Warnings

There are currently no watches in effect.